KBBD

Curtis Field Airport

Brady, Texas, USA
METAR KBBD 171755Z AUTO 36014KT 1 1/2SM -RA OVC005 07/07 A3035 RMK AO2 P0003
Observed Flight Rules
Oct-17 @ 17:55 UTC (26 minutes ago) Instrument Flight Rules
Wind Visibility Clouds Conditions
360° at 14 knots 1 1/2 miles
  • Overcast at 500' AGL
  • Light Rain
Temperatures Readings Precipitation
Current 7°C / 45°F
Dewpoint 7°C / 45°F
Humidity 100%
Altimeter 30.35" Hg
Pressure 1028 hPa
Elevation 557
Current Rain 0.03
METAR KBBD 171755Z AUTO 36014KT 1 1/2SM -RA OVC005 07/07 A3035 RMK AO2 P0003
Observed Flight Rules
Oct-17 @ 17:55 UTC
(26 minutes ago)
IFR
Wind Visibility
360° at 14 knots 1 1/2 miles
Clouds
  • Overcast at 500' AGL
Conditions
  • Light Rain
Temperature Dewpoint
7°C / 45°F 7°C / 45°F
Humidity Altimeter Pressure
100% 30.35" Hg 1028 hPa
Current Rain
0.03